Time;durP1;ratioP1;P1;durP2;ratioP2;P2;SDS_P1;SDS_P2;PMS_P1;PMS_P2;Temp;Humidity;BMP_temperature;BMP_pressure;BME280_temperature;BME280_humidity;BME280_pressure;Samples;Min_cycle;Max_cycle;Signal;HPM_P1;HPM_P2
2023/05/09 00:01:42;;;;;;;16.43;14.83;;;16.20;99.90;;;;;;5048226;28;20187;-74
2023/05/09 00:04:08;;;;;;;15.47;13.90;;;16.20;99.90;;;;;;5047706;28;20492;-73
2023/05/09 00:06:33;;;;;;;15.60;14.03;;;16.20;99.90;;;;;;5048726;28;20452;-74
2023/05/09 00:08:59;;;;;;;13.90;12.53;;;16.20;99.90;;;;;;5048402;28;20663;-74
2023/05/09 00:11:25;;;;;;;15.40;13.90;;;16.10;99.90;;;;;;5048368;28;20182;-74
2023/05/09 00:13:52;;;;;;;15.40;13.10;;;16.10;99.90;;;;;;5048391;28;20173;-73
2023/05/09 00:16:19;;;;;;;15.83;14.33;;;16.10;99.90;;;;;;5048129;28;21010;-74
2023/05/09 00:18:46;;;;;;;15.20;13.70;;;16.10;99.90;;;;;;5048316;28;20412;-74
2023/05/09 00:21:11;;;;;;;13.90;12.53;;;16.10;99.90;;;;;;5048273;28;20415;-74
2023/05/09 00:23:37;;;;;;;16.00;13.50;;;16.00;99.90;;;;;;5048155;28;20404;-73
2023/05/09 00:26:03;;;;;;;16.43;14.73;;;16.00;99.90;;;;;;5048500;28;20280;-74
2023/05/09 00:28:29;;;;;;;15.60;14.10;;;16.00;99.90;;;;;;5048381;28;20186;-73
2023/05/09 00:30:55;;;;;;;15.73;14.23;;;16.00;99.90;;;;;;5048124;28;20419;-73
2023/05/09 00:33:21;;;;;;;15.57;14.10;;;16.00;99.90;;;;;;5030270;28;20274;-74
2023/05/09 00:35:47;;;;;;;14.90;13.50;;;16.00;99.90;;;;;;5048191;28;21051;-74
2023/05/09 00:38:13;;;;;;;17.03;15.37;;;16.00;99.90;;;;;;5048188;28;20204;-74
2023/05/09 00:40:38;;;;;;;15.80;14.20;;;16.00;99.90;;;;;;5047960;28;20572;-73
2023/05/09 00:43:04;;;;;;;16.70;14.83;;;16.00;99.90;;;;;;5030239;28;20423;-73
2023/05/09 00:45:30;;;;;;;14.77;13.27;;;16.00;99.90;;;;;;5047980;28;20712;-74
2023/05/09 00:47:56;;;;;;;17.27;15.20;;;16.00;99.90;;;;;;5030107;28;20673;-74
2023/05/09 00:50:23;;;;;;;16.20;14.50;;;15.90;99.90;;;;;;5029936;28;20421;-73
2023/05/09 00:52:50;;;;;;;15.70;14.20;;;15.90;99.90;;;;;;5048055;28;20421;-73
2023/05/09 00:55:16;;;;;;;16.80;15.00;;;16.00;99.90;;;;;;5047652;28;20531;-74
2023/05/09 00:57:42;;;;;;;15.50;13.90;;;16.00;99.90;;;;;;5047964;28;20401;-74
2023/05/09 01:00:11;;;;;;;15.70;14.03;;;16.00;99.90;;;;;;5047822;28;20831;-74
2023/05/09 01:02:42;;;;;;;15.77;14.17;;;15.90;99.90;;;;;;5046677;28;20534;-74
2023/05/09 01:05:08;;;;;;;15.67;14.17;;;15.90;99.90;;;;;;5047601;28;20475;-73
2023/05/09 01:07:41;;;;;;;16.03;14.47;;;15.90;99.90;;;;;;5048013;28;20443;-74
2023/05/09 01:10:20;;;;;;;16.20;14.60;;;15.90;99.90;;;;;;5048168;28;20432;-74
2023/05/09 01:12:58;;;;;;;14.40;12.97;;;15.90;99.90;;;;;;5048159;28;20427;-73
2023/05/09 01:15:27;;;;;;;16.47;14.73;;;15.80;99.90;;;;;;5047752;28;20472;-73
2023/05/09 01:17:56;;;;;;;15.80;13.50;;;15.80;99.90;;;;;;5047972;28;20500;-74
2023/05/09 01:20:34;;;;;;;18.70;14.13;;;15.80;99.90;;;;;;5047740;28;20420;-74
2023/05/09 01:23:33;;;;;;;17.10;13.57;;;15.80;99.90;;;;;;5047953;28;20898;-74
2023/05/09 01:26:32;;;;;;;17.30;15.13;;;15.70;99.90;;;;;;5029839;28;20957;-74
2023/05/09 01:28:57;;;;;;;14.90;13.50;;;15.80;99.90;;;;;;5049562;28;20408;-74
2023/05/09 01:31:24;;;;;;;14.80;13.40;;;15.80;99.90;;;;;;5051480;28;20485;-74
2023/05/09 01:33:55;;;;;;;15.50;13.90;;;15.70;99.90;;;;;;5016959;28;20177;-73
2023/05/09 01:36:22;;;;;;;15.53;14.00;;;15.70;99.90;;;;;;5033472;28;20562;-73
2023/05/09 01:38:50;;;;;;;17.40;15.50;;;15.70;99.90;;;;;;5051413;28;20788;-74
2023/05/09 01:41:18;;;;;;;15.30;13.70;;;15.70;99.90;;;;;;5033371;28;20897;-73
2023/05/09 01:43:47;;;;;;;14.50;13.10;;;15.70;99.90;;;;;;5051387;28;20411;-74
2023/05/09 01:46:15;;;;;;;14.67;13.20;;;15.70;99.90;;;;;;5051136;28;20481;-74
2023/05/09 01:48:41;;;;;;;15.77;14.17;;;15.70;99.90;;;;;;5051234;28;20440;-74
2023/05/09 01:51:08;;;;;;;16.50;14.80;;;15.70;99.90;;;;;;5050960;28;20412;-73
2023/05/09 01:53:34;;;;;;;14.73;13.23;;;15.70;99.90;;;;;;5050950;28;20408;-74
2023/05/09 01:56:03;;;;;;;15.70;13.97;;;15.70;99.90;;;;;;5050990;28;20459;-74
2023/05/09 01:58:31;;;;;;;14.50;13.00;;;15.70;99.90;;;;;;5032998;28;20415;-74
2023/05/09 02:00:58;;;;;;;16.57;14.90;;;15.70;99.90;;;;;;5032883;28;20469;-74
2023/05/09 02:03:24;;;;;;;16.87;15.17;;;15.70;99.90;;;;;;5032363;28;20412;-73
2023/05/09 02:05:51;;;;;;;18.40;15.00;;;15.70;99.90;;;;;;5032776;28;20463;-73
2023/05/09 02:08:20;;;;;;;16.37;14.67;;;15.70;99.90;;;;;;5050837;28;20465;-73
2023/05/09 02:10:48;;;;;;;15.80;14.20;;;15.70;99.90;;;;;;5050639;28;20428;-74
2023/05/09 02:13:14;;;;;;;17.80;15.77;;;15.70;99.90;;;;;;5050724;28;20412;-73
2023/05/09 02:15:40;;;;;;;16.63;14.93;;;15.70;99.90;;;;;;5050635;28;20803;-73
2023/05/09 02:18:06;;;;;;;17.70;15.77;;;15.70;99.90;;;;;;5050654;28;20412;-73
2023/05/09 02:20:34;;;;;;;17.00;15.30;;;15.70;99.90;;;;;;5050732;28;20426;-74
2023/05/09 02:23:00;;;;;;;16.87;15.20;;;15.70;99.90;;;;;;5032669;28;20178;-74
2023/05/09 02:25:26;;;;;;;18.37;16.57;;;15.70;99.90;;;;;;5050467;28;20432;-73
2023/05/09 02:27:55;;;;;;;17.47;15.47;;;15.60;99.90;;;;;;5050324;28;20420;-73
2023/05/09 02:30:24;;;;;;;16.23;14.50;;;15.60;99.90;;;;;;5050451;28;20431;-73
2023/05/09 02:32:55;;;;;;;18.17;15.30;;;15.60;99.90;;;;;;5050419;28;20416;-73
2023/05/09 02:35:23;;;;;;;17.97;16.07;;;15.60;99.90;;;;;;5050231;28;20463;-74
2023/05/09 02:37:51;;;;;;;20.13;16.63;;;15.60;99.90;;;;;;5050339;28;20416;-73
2023/05/09 02:40:19;;;;;;;18.43;16.53;;;15.60;99.90;;;;;;5049846;28;20420;-73
2023/05/09 02:42:45;;;;;;;18.87;16.97;;;15.60;99.90;;;;;;5049977;28;20427;-74
2023/05/09 02:45:11;;;;;;;16.87;15.10;;;15.60;99.90;;;;;;5050187;28;20932;-73
2023/05/09 02:47:37;;;;;;;16.60;14.90;;;15.60;99.90;;;;;;5049960;28;20189;-73
2023/05/09 02:50:04;;;;;;;18.60;16.47;;;15.60;99.90;;;;;;5050044;28;20186;-73
2023/05/09 02:52:29;;;;;;;17.90;16.00;;;15.60;99.90;;;;;;5050162;28;21090;-74
2023/05/09 02:54:55;;;;;;;16.87;15.13;;;15.60;99.90;;;;;;5049951;28;20458;-73
2023/05/09 02:57:21;;;;;;;16.53;14.90;;;15.60;99.90;;;;;;5049865;28;20497;-74
2023/05/09 02:59:47;;;;;;;18.37;16.47;;;15.60;99.90;;;;;;5049870;28;20447;-73
2023/05/09 03:02:12;;;;;;;17.37;15.57;;;15.60;99.90;;;;;;5050048;28;20174;-73
2023/05/09 03:04:38;;;;;;;19.27;16.97;;;15.60;99.90;;;;;;5048694;28;20174;-73
2023/05/09 03:07:04;;;;;;;19.40;16.33;;;15.60;99.90;;;;;;5049653;28;20264;-73
2023/05/09 03:09:30;;;;;;;18.93;16.40;;;15.60;99.90;;;;;;5032007;28;20186;-74
2023/05/09 03:11:55;;;;;;;18.77;16.70;;;15.60;99.90;;;;;;5049735;28;20424;-74
2023/05/09 03:14:21;;;;;;;18.93;16.77;;;15.60;99.90;;;;;;5049733;28;20205;-73
2023/05/09 03:16:47;;;;;;;20.33;18.10;;;15.60;99.90;;;;;;5049398;28;20243;-73
2023/05/09 03:19:13;;;;;;;18.93;17.03;;;15.60;99.90;;;;;;5049931;28;20170;-74
2023/05/09 03:21:38;;;;;;;19.40;17.00;;;15.60;99.90;;;;;;5049352;28;20408;-73
2023/05/09 03:24:06;;;;;;;20.20;17.80;;;15.60;99.90;;;;;;5049502;28;20174;-73
2023/05/09 03:26:34;;;;;;;18.70;16.80;;;15.60;99.90;;;;;;5049410;28;20607;-73
2023/05/09 03:29:00;;;;;;;19.70;17.50;;;15.50;99.90;;;;;;5049492;28;20420;-74
2023/05/09 03:31:26;;;;;;;18.43;16.53;;;15.60;99.90;;;;;;5014981;28;20423;-73
2023/05/09 03:33:52;;;;;;;18.80;16.50;;;15.50;99.90;;;;;;5049361;28;20772;-73
2023/05/09 03:36:17;;;;;;;19.77;17.77;;;15.60;99.90;;;;;;5049248;28;20271;-73
2023/05/09 03:38:43;;;;;;;20.53;16.80;;;15.60;99.90;;;;;;5031178;28;20178;-73
2023/05/09 03:41:09;;;;;;;19.80;17.80;;;15.50;99.90;;;;;;5049057;28;20205;-74
2023/05/09 03:43:35;;;;;;;19.53;17.40;;;15.60;99.90;;;;;;5048954;28;20184;-73
2023/05/09 03:46:00;;;;;;;19.03;17.10;;;15.60;99.90;;;;;;5049220;28;20201;-73
2023/05/09 03:48:26;;;;;;;19.57;17.60;;;15.60;99.90;;;;;;5031122;28;20231;-73
2023/05/09 03:50:52;;;;;;;18.33;15.60;;;15.60;99.90;;;;;;5048064;28;20174;-74
2023/05/09 03:53:17;;;;;;;20.70;18.30;;;15.60;99.90;;;;;;5048732;28;20185;-73
2023/05/09 03:55:43;;;;;;;19.27;16.80;;;15.60;99.90;;;;;;5048955;28;20236;-74
2023/05/09 03:58:10;;;;;;;18.77;16.80;;;15.60;99.90;;;;;;5048632;28;20634;-73
2023/05/09 04:00:35;;;;;;;20.03;17.93;;;15.60;99.90;;;;;;5048747;28;20184;-74
2023/05/09 04:03:01;;;;;;;20.30;17.27;;;15.60;99.90;;;;;;5029876;28;20424;-73
2023/05/09 04:05:27;;;;;;;19.10;17.10;;;15.60;99.90;;;;;;5030906;28;20217;-74
2023/05/09 04:07:56;;;;;;;18.13;16.33;;;15.60;99.90;;;;;;5048681;28;20436;-74
2023/05/09 04:10:24;;;;;;;19.73;16.90;;;15.60;99.90;;;;;;5048445;28;20197;-74
2023/05/09 04:12:50;;;;;;;18.90;16.90;;;15.60;99.90;;;;;;5048480;28;20448;-73
2023/05/09 04:15:16;;;;;;;19.80;17.70;;;15.60;99.90;;;;;;5030580;28;20870;-73
2023/05/09 04:17:42;;;;;;;20.73;17.10;;;15.70;99.90;;;;;;5030467;28;20178;-73
2023/05/09 04:20:09;;;;;;;20.43;18.23;;;15.70;99.90;;;;;;5048455;28;20414;-73
2023/05/09 04:22:35;;;;;;;22.40;18.10;;;15.70;99.90;;;;;;5048306;28;20451;-73
2023/05/09 04:25:02;;;;;;;18.87;16.67;;;15.70;99.90;;;;;;5048091;28;20452;-73
2023/05/09 04:27:28;;;;;;;17.73;15.93;;;15.70;99.90;;;;;;5048191;28;20421;-73
2023/05/09 04:29:54;;;;;;;19.30;17.40;;;15.70;99.90;;;;;;5048395;28;20515;-74
2023/05/09 04:32:22;;;;;;;18.83;16.03;;;15.70;99.90;;;;;;5048339;28;20196;-73
2023/05/09 04:34:48;;;;;;;20.23;17.20;;;15.70;99.90;;;;;;5047938;28;20627;-73
2023/05/09 04:37:14;;;;;;;19.97;17.27;;;15.70;99.90;;;;;;5047981;28;20440;-74
2023/05/09 04:39:39;;;;;;;18.83;16.83;;;15.70;99.90;;;;;;5048029;28;20459;-74
2023/05/09 04:42:05;;;;;;;20.23;16.90;;;15.70;99.90;;;;;;5048285;28;20192;-73
2023/05/09 04:44:32;;;;;;;19.53;17.53;;;15.70;99.90;;;;;;5030140;28;20177;-73
2023/05/09 04:46:57;;;;;;;20.30;18.27;;;15.70;99.90;;;;;;5045818;28;20209;-74
2023/05/09 04:49:23;;;;;;;21.47;17.50;;;15.80;99.90;;;;;;5027348;28;20474;-74
2023/05/09 04:51:50;;;;;;;22.33;16.47;;;15.80;99.90;;;;;;5039411;28;20445;-73
2023/05/09 04:54:16;;;;;;;22.57;19.40;;;15.70;99.90;;;;;;5029701;28;20626;-73
2023/05/09 04:56:41;;;;;;;20.13;17.93;;;15.80;99.90;;;;;;5047781;28;20432;-74
2023/05/09 04:59:07;;;;;;;20.33;18.30;;;15.70;99.90;;;;;;5044411;28;20178;-73
2023/05/09 05:01:33;;;;;;;20.70;17.87;;;15.80;99.90;;;;;;5027447;28;20175;-73
2023/05/09 05:03:59;;;;;;;20.70;18.50;;;15.70;99.90;;;;;;5039721;28;20330;-73
2023/05/09 05:06:24;;;;;;;19.67;17.60;;;15.70;99.90;;;;;;5043629;28;20305;-74
2023/05/09 05:08:50;;;;;;;21.00;18.50;;;15.70;99.90;;;;;;5042714;28;20264;-74
2023/05/09 05:11:16;;;;;;;20.33;17.80;;;15.80;99.90;;;;;;5047489;28;20177;-72
2023/05/09 05:13:43;;;;;;;21.60;18.70;;;15.80;99.90;;;;;;5043879;28;20232;-72
2023/05/09 05:16:09;;;;;;;20.50;18.33;;;15.80;99.90;;;;;;5038186;28;20489;-72
2023/05/09 05:18:34;;;;;;;21.10;18.57;;;15.90;99.90;;;;;;5039145;28;20448;-72
2023/05/09 05:21:00;;;;;;;20.63;18.43;;;15.80;99.90;;;;;;5029601;28;20170;-72
2023/05/09 05:23:26;;;;;;;22.70;19.17;;;15.80;99.90;;;;;;5047656;28;20170;-72
2023/05/09 05:25:51;;;;;;;20.90;18.70;;;15.90;99.90;;;;;;5047678;28;20190;-72
2023/05/09 05:28:17;;;;;;;19.40;17.30;;;15.80;99.90;;;;;;5047394;28;20189;-72
2023/05/09 05:30:43;;;;;;;20.40;18.30;;;15.90;99.90;;;;;;5047554;28;20265;-72
2023/05/09 05:33:08;;;;;;;22.50;18.70;;;15.80;99.90;;;;;;5040851;28;20217;-72
2023/05/09 05:35:34;;;;;;;20.87;18.07;;;15.80;99.90;;;;;;5021509;28;20689;-72
2023/05/09 05:38:00;;;;;;;20.03;17.47;;;15.90;99.90;;;;;;5038955;28;20174;-72
2023/05/09 05:40:26;;;;;;;19.43;17.43;;;15.90;99.90;;;;;;5027992;28;20361;-73
2023/05/09 05:42:51;;;;;;;20.40;18.27;;;15.80;99.90;;;;;;5039611;28;20177;-72
2023/05/09 05:45:17;;;;;;;22.97;19.80;;;15.90;99.90;;;;;;5041884;28;20209;-72
2023/05/09 05:47:43;;;;;;;20.87;18.73;;;15.90;99.90;;;;;;5041183;28;20193;-72
2023/05/09 05:50:11;;;;;;;19.27;17.37;;;15.90;99.90;;;;;;5020688;28;20193;-73
2023/05/09 05:52:40;;;;;;;22.57;18.53;;;16.00;99.90;;;;;;5008199;28;20644;-72
2023/05/09 05:55:06;;;;;;;20.07;17.17;;;16.00;99.90;;;;;;5008576;28;20535;-72
2023/05/09 05:57:34;;;;;;;19.40;17.40;;;16.00;99.90;;;;;;5027554;28;20420;-72
2023/05/09 05:59:59;;;;;;;22.07;18.87;;;16.00;99.90;;;;;;5009871;28;20409;-72
2023/05/09 06:02:25;;;;;;;19.97;17.37;;;16.10;99.90;;;;;;4993513;28;20882;-73
2023/05/09 06:04:51;;;;;;;20.97;18.73;;;16.10;99.90;;;;;;5009336;28;20436;-72
2023/05/09 06:07:18;;;;;;;21.77;19.07;;;16.10;99.90;;;;;;5027601;28;20449;-72
2023/05/09 06:09:44;;;;;;;20.40;18.37;;;16.20;99.90;;;;;;5035328;28;20991;-71
2023/05/09 06:12:10;;;;;;;21.03;18.20;;;16.20;99.90;;;;;;5047640;28;20196;-71
2023/05/09 06:14:36;;;;;;;20.10;18.00;;;16.20;99.90;;;;;;5048471;28;20246;-72
2023/05/09 06:17:02;;;;;;;19.97;17.97;;;16.20;99.90;;;;;;5049843;28;20448;-71
2023/05/09 06:19:28;;;;;;;21.77;18.70;;;16.30;99.90;;;;;;5031409;28;20229;-71
2023/05/09 06:21:53;;;;;;;20.50;18.40;;;16.30;99.90;;;;;;5046857;28;20194;-72
2023/05/09 06:24:19;;;;;;;20.47;18.07;;;16.30;99.90;;;;;;5027393;28;20215;-72
2023/05/09 06:26:45;;;;;;;20.77;18.67;;;16.30;99.90;;;;;;5049028;28;20705;-72
2023/05/09 06:29:10;;;;;;;20.47;18.33;;;16.30;99.90;;;;;;5049562;28;20591;-71
2023/05/09 06:31:37;;;;;;;21.30;17.70;;;16.30;99.90;;;;;;5047684;28;20186;-72
2023/05/09 06:34:03;;;;;;;21.37;19.13;;;16.40;99.90;;;;;;5045671;28;20791;-72
2023/05/09 06:36:31;;;;;;;20.53;18.33;;;16.40;99.90;;;;;;5043095;28;20559;-72
2023/05/09 06:38:57;;;;;;;20.83;18.63;;;16.50;99.90;;;;;;5043350;28;20428;-72
2023/05/09 06:41:22;;;;;;;19.87;17.77;;;16.50;99.90;;;;;;5049826;28;20518;-72
2023/05/09 06:43:48;;;;;;;19.00;17.00;;;16.50;99.90;;;;;;5041183;28;20527;-72
2023/05/09 06:46:14;;;;;;;19.57;17.10;;;16.60;99.90;;;;;;5042403;28;20774;-72
2023/05/09 06:48:39;;;;;;;21.43;15.77;;;16.70;99.90;;;;;;5048805;28;20273;-72
2023/05/09 06:51:05;;;;;;;19.10;17.20;;;16.80;99.90;;;;;;5039799;28;20173;-72
2023/05/09 06:53:31;;;;;;;20.53;17.37;;;16.80;99.90;;;;;;5049792;28;20185;-72
2023/05/09 06:55:56;;;;;;;18.97;17.07;;;16.80;99.90;;;;;;5050240;28;20278;-72
2023/05/09 06:58:22;;;;;;;19.40;17.40;;;16.70;99.90;;;;;;5049911;28;20185;-73
2023/05/09 07:00:48;;;;;;;18.30;16.30;;;16.80;99.90;;;;;;5049972;28;20178;-72
2023/05/09 07:03:14;;;;;;;18.67;16.87;;;16.80;99.90;;;;;;5049914;28;20265;-72
2023/05/09 07:05:40;;;;;;;16.20;14.50;;;16.80;99.90;;;;;;5050008;28;20217;-72
2023/05/09 07:08:06;;;;;;;18.13;16.07;;;16.80;99.90;;;;;;5049971;28;20927;-72
2023/05/09 07:10:32;;;;;;;17.40;15.67;;;16.90;99.90;;;;;;5049824;28;20263;-72
2023/05/09 07:12:57;;;;;;;17.73;15.87;;;16.90;99.90;;;;;;5050019;28;20239;-72
2023/05/09 07:15:23;;;;;;;16.77;15.10;;;16.90;99.90;;;;;;5048444;28;20840;-72
2023/05/09 07:17:49;;;;;;;17.70;15.80;;;16.90;99.90;;;;;;5049752;28;20182;-72
2023/05/09 07:20:14;;;;;;;16.23;14.20;;;17.00;99.90;;;;;;5049653;28;20647;-72
2023/05/09 07:22:40;;;;;;;16.93;15.03;;;17.00;99.90;;;;;;5049837;28;20286;-72
2023/05/09 07:25:07;;;;;;;18.23;16.10;;;17.00;99.90;;;;;;5048118;28;20288;-72
2023/05/09 07:27:34;;;;;;;16.83;14.97;;;17.00;99.90;;;;;;5049593;28;20174;-72
2023/05/09 07:29:59;;;;;;;18.30;16.40;;;17.00;99.90;;;;;;5049403;28;20489;-72
2023/05/09 07:32:27;;;;;;;15.57;13.97;;;17.10;99.90;;;;;;5049662;28;20455;-72
2023/05/09 07:34:53;;;;;;;17.13;15.43;;;17.10;99.90;;;;;;5049130;28;20210;-72
2023/05/09 07:37:19;;;;;;;16.93;15.13;;;17.20;99.90;;;;;;5049339;28;20432;-72
2023/05/09 07:39:46;;;;;;;15.67;13.63;;;17.10;99.90;;;;;;5049294;28;20811;-72
2023/05/09 07:42:12;;;;;;;15.53;13.80;;;17.20;99.90;;;;;;5049389;28;20170;-72
2023/05/09 07:44:38;;;;;;;15.40;13.80;;;17.20;99.90;;;;;;5049122;28;20434;-72
2023/05/09 07:47:04;;;;;;;15.00;13.50;;;17.20;99.90;;;;;;5048925;28;20444;-72
2023/05/09 07:49:31;;;;;;;15.47;13.80;;;17.20;99.90;;;;;;5048086;28;20188;-72
2023/05/09 07:51:56;;;;;;;17.00;14.90;;;17.20;99.90;;;;;;5049099;28;20416;-72
2023/05/09 07:54:22;;;;;;;15.30;13.70;;;17.20;99.90;;;;;;5048868;28;20801;-72
2023/05/09 07:56:48;;;;;;;15.20;13.60;;;17.20;99.90;;;;;;5048858;28;20636;-72
2023/05/09 07:59:14;;;;;;;14.77;13.17;;;17.20;99.90;;;;;;5049238;28;20185;-72
2023/05/09 08:01:39;;;;;;;14.10;12.77;;;17.30;99.90;;;;;;5048739;28;20567;-72
2023/05/09 08:04:07;;;;;;;15.00;13.30;;;17.30;99.90;;;;;;5048877;28;20408;-72
2023/05/09 08:06:33;;;;;;;14.90;13.40;;;17.30;99.90;;;;;;5048821;28;20260;-72
2023/05/09 08:08:59;;;;;;;15.60;13.57;;;17.30;99.90;;;;;;5048626;28;20448;-72
2023/05/09 08:11:25;;;;;;;15.17;13.60;;;17.40;99.90;;;;;;5048545;28;20936;-72
2023/05/09 08:13:51;;;;;;;14.43;13.13;;;17.40;99.90;;;;;;5048669;28;20613;-72
2023/05/09 08:16:16;;;;;;;15.27;12.77;;;17.40;99.90;;;;;;5048541;28;20210;-72
2023/05/09 08:18:42;;;;;;;15.03;13.23;;;17.40;99.90;;;;;;5048757;28;20169;-72
2023/05/09 08:21:08;;;;;;;15.37;13.87;;;17.30;99.90;;;;;;5048556;28;20228;-72
2023/05/09 08:23:34;;;;;;;13.47;12.10;;;17.40;99.90;;;;;;5048524;28;20897;-72
2023/05/09 08:26:00;;;;;;;13.80;12.40;;;17.40;99.90;;;;;;5048521;28;20202;-72
2023/05/09 08:28:27;;;;;;;13.30;11.90;;;17.40;99.90;;;;;;5047234;28;20189;-72
2023/05/09 08:30:53;;;;;;;13.67;12.30;;;17.40;99.90;;;;;;5048203;28;20247;-72
2023/05/09 08:33:19;;;;;;;12.77;11.57;;;17.40;99.90;;;;;;5047472;28;20928;-72
2023/05/09 08:35:49;;;;;;;12.20;11.00;;;17.40;99.90;;;;;;5047009;28;20567;-72
2023/05/09 08:38:14;;;;;;;10.80;9.77;;;17.50;99.90;;;;;;5048048;28;20184;-72
2023/05/09 08:40:40;;;;;;;10.70;9.70;;;17.60;99.90;;;;;;5048021;28;20503;-72
2023/05/09 08:43:06;;;;;;;10.47;9.57;;;17.60;99.90;;;;;;5048080;28;20218;-72
2023/05/09 08:45:38;;;;;;;10.63;8.40;;;17.60;99.90;;;;;;5048330;28;20436;-72
2023/05/09 08:48:05;;;;;;;10.30;9.30;;;17.60;99.90;;;;;;5030390;28;20420;-72
2023/05/09 08:50:31;;;;;;;9.93;9.03;;;17.70;99.90;;;;;;5029139;28;20901;-72
2023/05/09 08:52:57;;;;;;;9.73;8.93;;;17.70;99.90;;;;;;5030473;28;20417;-72
2023/05/09 08:55:24;;;;;;;9.10;8.20;;;17.80;99.90;;;;;;5048166;28;20464;-72
2023/05/09 08:57:51;;;;;;;10.77;8.40;;;17.80;99.90;;;;;;5048232;28;20440;-72
2023/05/09 09:00:19;;;;;;;9.47;8.53;;;17.80;99.90;;;;;;5030106;28;20466;-72
2023/05/09 09:02:45;;;;;;;10.33;9.23;;;17.90;99.90;;;;;;5048037;28;20545;-72
2023/05/09 09:05:11;;;;;;;11.37;9.40;;;17.90;99.90;;;;;;5047973;28;20452;-72
2023/05/09 09:07:39;;;;;;;9.60;8.80;;;17.90;99.90;;;;;;5048007;28;20416;-72
2023/05/09 09:10:07;;;;;;;9.10;8.30;;;18.00;99.90;;;;;;5047816;28;20195;-72
2023/05/09 09:12:34;;;;;;;9.03;8.23;;;18.00;99.90;;;;;;5048014;28;20428;-72
2023/05/09 09:15:04;;;;;;;9.67;8.87;;;18.10;99.90;;;;;;5047865;28;20501;-72
2023/05/09 09:17:36;;;;;;;8.23;7.43;;;18.10;99.90;;;;;;5047883;28;20904;-72
2023/05/09 09:20:04;;;;;;;8.60;7.80;;;18.10;99.90;;;;;;5048127;28;20776;-72
2023/05/09 09:22:34;;;;;;;7.13;6.60;;;18.10;99.90;;;;;;5048138;28;20432;-72
2023/05/09 09:25:01;;;;;;;7.20;6.50;;;18.20;99.90;;;;;;5047819;28;20539;-72
2023/05/09 09:27:27;;;;;;;7.57;6.90;;;18.20;99.90;;;;;;5048008;28;20751;-72
2023/05/09 09:29:52;;;;;;;7.93;7.23;;;18.30;99.90;;;;;;5048294;28;20929;-72
2023/05/09 09:32:18;;;;;;;7.90;7.20;;;18.50;99.90;;;;;;5048698;28;20437;-72
2023/05/09 09:34:49;;;;;;;7.50;6.80;;;18.60;99.90;;;;;;5047883;28;20561;-72
2023/05/09 09:37:24;;;;;;;7.30;6.53;;;18.70;99.90;;;;;;5030039;28;20174;-72
2023/05/09 09:39:54;;;;;;;6.10;5.60;;;18.90;99.90;;;;;;5047863;28;20403;-72
2023/05/09 09:42:20;;;;;;;7.40;6.70;;;19.00;99.90;;;;;;5048070;28;20462;-72
2023/05/09 09:44:55;;;;;;;7.53;6.67;;;19.10;99.90;;;;;;5047721;28;20427;-72
2023/05/09 09:47:30;;;;;;;7.40;6.60;;;19.10;99.90;;;;;;5029715;28;20419;-72
2023/05/09 09:49:56;;;;;;;8.20;7.07;;;19.10;99.90;;;;;;5048606;28;20408;-72
2023/05/09 09:52:26;;;;;;;7.33;6.73;;;19.20;99.90;;;;;;5051429;28;20420;-72
2023/05/09 09:54:55;;;;;;;7.27;6.67;;;19.20;99.90;;;;;;5051243;28;20205;-72
2023/05/09 09:57:37;;;;;;;7.10;6.50;;;19.20;99.90;;;;;;5051209;28;20913;-72
2023/05/09 10:00:05;;;;;;;6.10;5.50;;;19.10;99.90;;;;;;5051312;28;20408;-72
2023/05/09 10:02:30;;;;;;;6.83;6.23;;;19.20;99.90;;;;;;5051300;28;20435;-72
2023/05/09 10:05:05;;;;;;;6.43;5.93;;;19.20;99.90;;;;;;5051067;28;20443;-72
2023/05/09 10:07:36;;;;;;;7.30;6.73;;;19.20;99.90;;;;;;5051312;28;20200;-72
2023/05/09 10:10:04;;;;;;;5.87;5.27;;;19.20;99.90;;;;;;5051770;28;20960;-72
2023/05/09 10:12:36;;;;;;;6.00;5.13;;;19.30;99.90;;;;;;5033291;28;20420;-72
2023/05/09 10:15:07;;;;;;;5.27;4.87;;;19.30;99.90;;;;;;5050953;28;20455;-72
2023/05/09 10:17:34;;;;;;;5.20;4.80;;;19.40;99.90;;;;;;5049390;28;20417;-72
2023/05/09 10:20:04;;;;;;;5.47;5.03;;;19.40;99.90;;;;;;5051134;28;20416;-72
2023/05/09 10:22:35;;;;;;;5.87;4.63;;;19.50;99.90;;;;;;5051074;28;20412;-72
2023/05/09 10:25:19;;;;;;;5.67;5.17;;;19.60;99.90;;;;;;5016367;28;20448;-72
2023/05/09 10:27:46;;;;;;;4.87;4.37;;;19.60;99.90;;;;;;5050523;28;20940;-72
2023/05/09 10:30:26;;;;;;;5.20;4.13;;;19.60;99.90;;;;;;5033019;28;20772;-72
2023/05/09 10:32:56;;;;;;;4.47;4.07;;;19.70;99.90;;;;;;5050797;28;20412;-73
2023/05/09 10:35:29;;;;;;;4.30;3.97;;;19.80;99.90;;;;;;5050743;28;20884;-72
2023/05/09 10:37:56;;;;;;;4.77;3.77;;;19.80;99.90;;;;;;5050373;28;20862;-72
2023/05/09 10:40:22;;;;;;;3.73;3.40;;;19.90;99.90;;;;;;5032760;28;20465;-72
2023/05/09 10:42:48;;;;;;;10.70;3.80;;;19.90;99.90;;;;;;5050225;28;20906;-72
2023/05/09 10:45:14;;;;;;;3.97;3.40;;;19.90;99.90;;;;;;5050480;28;20428;-72
2023/05/09 10:47:42;;;;;;;4.10;3.80;;;20.00;99.90;;;;;;5050011;28;20420;-72
2023/05/09 10:50:11;;;;;;;3.60;3.10;;;20.00;99.90;;;;;;5031371;28;20423;-72
2023/05/09 10:53:07;;;;;;;4.30;3.90;;;20.00;99.90;;;;;;5050243;28;20427;-72
2023/05/09 10:55:57;;;;;;;3.37;3.07;;;20.00;99.90;;;;;;5019382;28;20480;-72
2023/05/09 10:58:33;;;;;;;5.10;3.50;;;20.10;99.90;;;;;;5049689;28;20423;-72
2023/05/09 11:01:00;;;;;;;3.50;3.20;;;20.10;99.90;;;;;;5049830;28;20921;-72
2023/05/09 11:03:27;;;;;;;3.77;3.47;;;20.10;99.90;;;;;;5049872;28;20420;-72
2023/05/09 11:05:55;;;;;;;4.33;4.03;;;20.10;99.90;;;;;;5050064;28;20487;-72
2023/05/09 11:08:26;;;;;;;4.37;3.97;;;20.10;99.90;;;;;;5031853;28;20424;-72
2023/05/09 11:10:53;;;;;;;3.47;3.17;;;20.10;99.90;;;;;;5049869;28;21045;-72
2023/05/09 11:13:22;;;;;;;4.40;3.50;;;20.10;99.90;;;;;;5031684;28;20422;-72
2023/05/09 11:16:00;;;;;;;4.07;3.70;;;20.10;99.90;;;;;;5049983;28;20830;-73
2023/05/09 11:18:27;;;;;;;3.80;3.50;;;20.20;99.90;;;;;;5049643;28;20426;-72
2023/05/09 11:20:54;;;;;;;4.00;3.70;;;20.20;99.90;;;;;;5049621;28;20420;-72
2023/05/09 11:23:28;;;;;;;4.50;4.07;;;20.20;99.90;;;;;;5049503;28;20408;-72
2023/05/09 11:26:04;;;;;;;4.00;3.40;;;20.20;99.90;;;;;;5049663;28;20947;-72
2023/05/09 11:28:32;;;;;;;4.13;3.83;;;20.20;99.90;;;;;;5031555;28;20943;-72
2023/05/09 11:31:10;;;;;;;4.87;4.37;;;20.20;99.90;;;;;;5049641;28;20936;-72
2023/05/09 11:33:37;;;;;;;4.10;3.80;;;20.20;99.90;;;;;;5049082;28;20446;-72
2023/05/09 11:36:32;;;;;;;4.27;3.87;;;20.20;99.90;;;;;;5049629;28;20494;-72
2023/05/09 11:39:08;;;;;;;4.40;4.00;;;20.20;99.90;;;;;;5049500;28;20411;-72
2023/05/09 11:41:42;;;;;;;4.87;4.30;;;20.20;99.90;;;;;;5049371;28;20404;-72
2023/05/09 11:44:20;;;;;;;5.47;3.47;;;20.20;99.90;;;;;;5049272;28;20435;-73
2023/05/09 11:46:47;;;;;;;5.33;4.57;;;20.20;99.90;;;;;;5048907;28;20444;-72
2023/05/09 11:49:13;;;;;;;4.20;3.80;;;20.20;99.90;;;;;;5048461;28;20427;-72
2023/05/09 11:51:40;;;;;;;4.53;4.00;;;20.30;99.90;;;;;;5031115;28;20420;-72
2023/05/09 11:54:06;;;;;;;4.70;4.30;;;20.20;99.90;;;;;;5030993;28;20427;-72
2023/05/09 11:56:35;;;;;;;4.10;3.80;;;20.20;99.90;;;;;;5049218;28;20467;-73
2023/05/09 11:59:01;;;;;;;4.40;4.00;;;20.10;99.90;;;;;;5030940;28;20494;-73
2023/05/09 12:01:31;;;;;;;4.60;4.20;;;20.00;99.90;;;;;;5048931;28;20870;-73
2023/05/09 12:03:58;;;;;;;4.10;3.80;;;20.00;99.90;;;;;;5031040;28;20424;-73
2023/05/09 12:06:25;;;;;;;3.97;3.67;;;19.90;99.90;;;;;;5048933;28;20474;-73
2023/05/09 12:08:51;;;;;;;4.17;3.73;;;19.80;99.90;;;;;;5048512;28;20507;-73
2023/05/09 12:11:17;;;;;;;5.00;3.73;;;19.80;99.90;;;;;;5048719;28;20933;-73
2023/05/09 12:13:46;;;;;;;4.37;3.47;;;19.80;99.90;;;;;;5048029;28;20418;-73
2023/05/09 12:16:12;;;;;;;4.10;3.80;;;19.80;99.90;;;;;;5048824;28;20224;-73
2023/05/09 12:18:46;;;;;;;3.83;3.53;;;19.80;99.90;;;;;;5048556;28;20830;-73
2023/05/09 12:21:12;;;;;;;5.10;4.60;;;19.80;99.90;;;;;;5048865;28;20419;-73
2023/05/09 12:23:38;;;;;;;4.50;4.10;;;19.80;99.90;;;;;;5048525;28;20925;-73
2023/05/09 12:26:04;;;;;;;6.17;4.97;;;19.80;99.90;;;;;;5048623;28;20602;-73
2023/05/09 12:28:30;;;;;;;5.33;4.83;;;19.80;99.90;;;;;;5048281;28;20174;-73
2023/05/09 12:30:56;;;;;;;5.10;4.70;;;19.90;99.90;;;;;;5030509;28;20947;-73
2023/05/09 12:33:23;;;;;;;4.67;4.30;;;19.90;99.90;;;;;;5048046;28;20181;-73
2023/05/09 12:36:02;;;;;;;4.10;3.80;;;19.90;99.90;;;;;;5048456;28;20557;-73